Time;durP1;ratioP1;P1;durP2;ratioP2;P2;SDS_P1;SDS_P2;PMS_P1;PMS_P2;Temp;Humidity;BMP_temperature;BMP_pressure;BME280_temperature;BME280_humidity;BME280_pressure;Samples;Min_cycle;Max_cycle;Signal;HPM_P1;HPM_P2
2023/03/23 00:01:13;;;;;;;2.08;1.10;;;15.60;99.90;;;;;;4988527;28;20187;-67
2023/03/23 00:03:42;;;;;;;1.45;1.05;;;15.60;99.90;;;;;;4978358;28;20230;-68
2023/03/23 00:06:16;;;;;;;2.33;1.30;;;15.60;99.90;;;;;;4994037;28;20238;-67
2023/03/23 00:08:50;;;;;;;1.55;1.00;;;15.60;99.90;;;;;;4976034;28;20210;-71
2023/03/23 00:11:18;;;;;;;1.38;1.00;;;15.60;99.90;;;;;;4979485;28;20219;-71
2023/03/23 00:13:46;;;;;;;1.25;0.90;;;15.60;99.90;;;;;;4989639;28;20245;-68
2023/03/23 00:16:19;;;;;;;1.95;1.20;;;15.60;99.90;;;;;;4976372;28;20183;-69
2023/03/23 00:18:52;;;;;;;1.23;0.80;;;15.60;99.90;;;;;;4991925;28;20196;-69
2023/03/23 00:21:34;;;;;;;1.30;0.90;;;15.60;99.90;;;;;;4968785;28;20179;-68
2023/03/23 00:24:11;;;;;;;2.20;1.40;;;15.60;99.90;;;;;;4992570;28;20198;-68
2023/03/23 00:26:40;;;;;;;1.92;0.90;;;15.60;99.90;;;;;;4994511;28;20188;-66
2023/03/23 00:29:10;;;;;;;2.05;1.13;;;15.60;99.90;;;;;;4975824;28;20184;-66
2023/03/23 00:31:36;;;;;;;2.75;1.30;;;15.60;99.90;;;;;;4992236;28;20266;-69
2023/03/23 00:34:04;;;;;;;1.65;0.90;;;15.60;99.90;;;;;;4975594;28;20309;-66
2023/03/23 00:36:34;;;;;;;1.13;1.00;;;15.60;99.90;;;;;;4975441;28;20190;-68
2023/03/23 00:39:03;;;;;;;1.40;1.00;;;15.50;99.90;;;;;;4988401;28;20231;-66
2023/03/23 00:41:32;;;;;;;1.85;1.00;;;15.60;99.90;;;;;;4968857;28;20183;-69
2023/03/23 00:44:00;;;;;;;1.45;1.00;;;15.50;99.90;;;;;;4957543;28;20196;-68
2023/03/23 00:46:29;;;;;;;1.05;0.90;;;15.50;99.90;;;;;;4975521;28;20254;-68
2023/03/23 00:48:56;;;;;;;3.38;1.38;;;15.50;99.90;;;;;;4991677;28;20176;-68
2023/03/23 00:51:24;;;;;;;2.28;1.10;;;15.50;99.90;;;;;;4989381;28;20484;-70
2023/03/23 00:53:50;;;;;;;2.08;1.00;;;15.50;99.90;;;;;;4975954;28;20206;-67
2023/03/23 00:56:16;;;;;;;1.15;0.82;;;15.50;99.90;;;;;;4977337;28;20236;-70
2023/03/23 00:58:42;;;;;;;1.33;0.95;;;15.50;99.90;;;;;;4989292;28;20296;-71
2023/03/23 01:01:08;;;;;;;1.10;1.00;;;15.50;99.90;;;;;;4999995;28;20210;-70
2023/03/23 01:03:34;;;;;;;3.33;1.23;;;15.50;99.90;;;;;;4994956;28;20190;-66
2023/03/23 01:06:08;;;;;;;1.00;0.90;;;15.50;99.90;;;;;;4958656;28;20180;-68
2023/03/23 01:08:39;;;;;;;1.00;0.80;;;15.50;99.90;;;;;;4976142;28;20180;-66
2023/03/23 01:11:06;;;;;;;2.17;1.20;;;15.50;99.90;;;;;;4975062;28;20215;-68
2023/03/23 01:13:32;;;;;;;0.82;0.80;;;15.40;99.90;;;;;;4991787;28;20172;-67
2023/03/23 01:15:57;;;;;;;1.70;0.82;;;15.50;99.90;;;;;;4992014;28;20184;-70
2023/03/23 01:18:23;;;;;;;1.30;0.80;;;15.50;99.90;;;;;;4991437;28;20184;-67
2023/03/23 01:20:51;;;;;;;1.15;0.80;;;15.40;99.90;;;;;;4991510;28;20195;-68
2023/03/23 01:23:17;;;;;;;1.40;0.90;;;15.40;99.90;;;;;;4977006;28;20180;-68
2023/03/23 01:25:43;;;;;;;1.02;0.77;;;15.40;99.90;;;;;;4975609;28;20191;-68
2023/03/23 01:28:11;;;;;;;1.73;1.38;;;15.40;99.90;;;;;;4975405;28;20214;-65
2023/03/23 01:30:39;;;;;;;2.30;1.10;;;15.40;99.90;;;;;;4979917;28;20176;-66
2023/03/23 01:33:07;;;;;;;0.82;0.80;;;15.40;99.90;;;;;;4975686;28;20349;-68
2023/03/23 01:35:33;;;;;;;2.47;1.00;;;15.40;99.90;;;;;;4975076;28;20192;-69
2023/03/23 01:37:58;;;;;;;2.50;1.30;;;15.40;99.90;;;;;;4983894;28;20242;-68
2023/03/23 01:40:28;;;;;;;1.50;1.10;;;15.40;99.90;;;;;;4972409;28;20209;-65
2023/03/23 01:42:53;;;;;;;1.25;1.00;;;15.40;99.90;;;;;;4968583;28;20238;-68
2023/03/23 01:45:19;;;;;;;1.80;1.10;;;15.40;99.90;;;;;;4975490;28;20187;-68
2023/03/23 01:47:58;;;;;;;1.40;1.10;;;15.40;99.90;;;;;;4991731;28;20180;-66
2023/03/23 01:50:28;;;;;;;1.88;1.10;;;15.40;99.90;;;;;;4984025;28;20207;-68
2023/03/23 01:52:57;;;;;;;0.98;0.80;;;15.40;99.90;;;;;;4980862;28;20204;-68
2023/03/23 01:55:27;;;;;;;1.23;0.90;;;15.30;99.90;;;;;;4975249;28;20354;-68
2023/03/23 01:57:55;;;;;;;1.33;0.90;;;15.30;99.90;;;;;;4990564;28;20191;-68
2023/03/23 02:00:24;;;;;;;1.35;1.20;;;15.30;99.90;;;;;;4978615;28;20275;-66
2023/03/23 02:02:52;;;;;;;2.50;1.10;;;15.30;99.90;;;;;;4972073;28;20208;-66
2023/03/23 02:05:28;;;;;;;1.30;1.00;;;15.30;99.90;;;;;;4974253;28;20218;-66
2023/03/23 02:07:58;;;;;;;2.53;1.00;;;15.30;99.90;;;;;;4991003;28;20180;-66
2023/03/23 02:10:29;;;;;;;1.85;1.20;;;15.20;99.90;;;;;;4975183;28;20258;-67
2023/03/23 02:13:00;;;;;;;1.33;1.13;;;15.20;99.90;;;;;;4984467;28;20176;-67
2023/03/23 02:15:46;;;;;;;1.65;1.10;;;15.20;99.90;;;;;;4982931;28;20247;-68
2023/03/23 02:18:39;;;;;;;1.48;1.00;;;15.10;99.90;;;;;;4965404;28;20172;-67
2023/03/23 02:21:14;;;;;;;1.15;0.88;;;15.10;99.90;;;;;;4967160;28;20199;-68
2023/03/23 02:23:52;;;;;;;1.38;1.10;;;15.00;99.90;;;;;;4990291;28;20207;-66
2023/03/23 02:26:38;;;;;;;1.50;1.00;;;15.00;99.90;;;;;;4991039;28;20167;-67
2023/03/23 02:29:44;;;;;;;1.88;1.00;;;15.00;99.90;;;;;;4975921;28;20168;-65
2023/03/23 02:32:19;;;;;;;2.42;0.88;;;15.00;99.90;;;;;;4994632;28;20216;-66
2023/03/23 02:34:50;;;;;;;1.23;0.80;;;14.90;99.90;;;;;;4994639;28;20183;-67
2023/03/23 02:37:26;;;;;;;1.20;0.80;;;14.90;99.90;;;;;;4994715;28;20176;-67
2023/03/23 02:40:16;;;;;;;1.77;1.00;;;14.90;99.90;;;;;;4994509;28;20183;-67
2023/03/23 02:42:49;;;;;;;1.30;0.82;;;14.90;99.90;;;;;;4993821;28;20191;-67
2023/03/23 02:45:17;;;;;;;1.42;1.00;;;14.90;99.90;;;;;;4978629;28;20199;-67
2023/03/23 02:47:44;;;;;;;1.13;0.80;;;14.80;99.90;;;;;;4978113;28;20187;-67
2023/03/23 02:50:13;;;;;;;1.63;1.05;;;14.80;99.90;;;;;;4983567;28;20187;-65
2023/03/23 02:52:41;;;;;;;0.90;0.88;;;14.80;99.90;;;;;;4977941;28;20350;-67
2023/03/23 02:55:11;;;;;;;2.25;1.00;;;14.70;99.90;;;;;;4978878;28;20175;-68
2023/03/23 02:57:37;;;;;;;2.15;1.20;;;14.70;99.90;;;;;;4981479;28;20274;-66
2023/03/23 03:00:09;;;;;;;1.50;1.10;;;14.60;99.90;;;;;;4978418;28;20203;-68
2023/03/23 03:02:42;;;;;;;2.03;0.93;;;14.60;99.90;;;;;;4978402;28;20219;-68
2023/03/23 03:05:26;;;;;;;1.27;1.00;;;14.50;99.90;;;;;;4978235;28;20208;-68
2023/03/23 03:08:01;;;;;;;1.75;1.00;;;14.50;99.90;;;;;;4994424;28;20176;-65
2023/03/23 03:10:26;;;;;;;1.48;0.98;;;14.40;99.90;;;;;;4988819;28;20199;-68
2023/03/23 03:12:55;;;;;;;1.17;1.00;;;14.40;99.90;;;;;;4994293;28;20203;-68
2023/03/23 03:15:39;;;;;;;1.52;1.00;;;14.30;99.90;;;;;;4990053;28;20172;-67
2023/03/23 03:18:11;;;;;;;1.60;0.90;;;14.30;99.90;;;;;;4994364;28;20198;-68
2023/03/23 03:20:44;;;;;;;2.63;1.33;;;14.30;99.90;;;;;;4994186;28;20226;-66
2023/03/23 03:23:13;;;;;;;1.98;1.00;;;14.20;99.90;;;;;;4993731;28;20180;-65
2023/03/23 03:25:47;;;;;;;1.00;0.90;;;14.20;99.90;;;;;;4993777;28;20197;-69
2023/03/23 03:28:21;;;;;;;1.27;1.00;;;14.20;99.90;;;;;;4994039;28;20165;-68
2023/03/23 03:30:53;;;;;;;1.70;0.90;;;14.20;99.90;;;;;;4984184;28;20213;-68
2023/03/23 03:33:20;;;;;;;1.48;0.93;;;14.20;99.90;;;;;;4970569;28;20184;-67
2023/03/23 03:35:47;;;;;;;1.10;0.90;;;14.20;99.90;;;;;;4993833;28;20204;-67
2023/03/23 03:38:15;;;;;;;1.33;1.00;;;14.10;99.90;;;;;;4974344;28;20177;-67
2023/03/23 03:40:43;;;;;;;3.00;1.15;;;14.10;99.90;;;;;;4974018;28;20255;-68
2023/03/23 03:43:09;;;;;;;1.20;0.88;;;14.20;99.90;;;;;;4972549;28;20201;-67
2023/03/23 03:45:37;;;;;;;1.20;1.00;;;14.10;99.90;;;;;;4974206;28;20180;-68
2023/03/23 03:48:07;;;;;;;1.77;1.00;;;14.10;99.90;;;;;;4977072;28;20489;-66
2023/03/23 03:50:35;;;;;;;1.83;1.00;;;14.10;99.90;;;;;;4977119;28;21684;-68
2023/03/23 03:53:04;;;;;;;1.20;0.90;;;14.10;99.90;;;;;;4977242;28;20176;-68
2023/03/23 03:55:35;;;;;;;1.30;0.90;;;14.10;99.90;;;;;;4977283;28;20228;-67
2023/03/23 03:58:04;;;;;;;1.23;1.00;;;14.10;99.90;;;;;;4977548;28;20167;-67
2023/03/23 04:00:32;;;;;;;1.67;1.00;;;14.10;99.90;;;;;;4990190;28;20171;-64
2023/03/23 04:02:59;;;;;;;1.10;0.90;;;14.10;99.90;;;;;;5012586;28;20222;-68
2023/03/23 04:05:28;;;;;;;1.50;0.90;;;14.10;99.90;;;;;;4997826;28;20187;-67
2023/03/23 04:08:01;;;;;;;1.48;0.80;;;14.10;99.90;;;;;;4976260;28;20211;-67
2023/03/23 04:10:29;;;;;;;1.27;0.90;;;14.20;99.90;;;;;;4992955;28;20180;-66
2023/03/23 04:12:55;;;;;;;1.08;0.85;;;14.20;99.90;;;;;;4976854;28;20259;-67
2023/03/23 04:15:25;;;;;;;1.05;0.80;;;14.20;99.90;;;;;;4993275;28;20291;-67
2023/03/23 04:17:53;;;;;;;1.30;0.85;;;14.20;99.90;;;;;;4993141;28;20495;-65
2023/03/23 04:20:19;;;;;;;1.10;0.90;;;14.20;99.90;;;;;;4976690;28;20180;-65
2023/03/23 04:22:48;;;;;;;0.90;0.80;;;14.20;99.90;;;;;;4992986;28;20195;-67
2023/03/23 04:25:20;;;;;;;0.80;0.80;;;14.20;99.90;;;;;;4976554;28;20191;-66
2023/03/23 04:27:52;;;;;;;2.13;0.90;;;14.20;99.90;;;;;;4974918;28;20251;-67
2023/03/23 04:30:19;;;;;;;1.08;0.82;;;14.20;99.90;;;;;;4962211;28;20187;-66
2023/03/23 04:32:45;;;;;;;1.70;1.00;;;14.20;99.90;;;;;;4998784;28;20243;-64
2023/03/23 04:35:16;;;;;;;1.30;1.08;;;14.20;99.90;;;;;;4987919;28;20205;-66
2023/03/23 04:37:44;;;;;;;1.65;1.10;;;14.20;99.90;;;;;;4972672;28;20223;-68
2023/03/23 04:40:16;;;;;;;2.28;0.93;;;14.20;99.90;;;;;;4975822;28;20168;-67
2023/03/23 04:42:46;;;;;;;1.00;0.90;;;14.10;99.90;;;;;;4976026;28;20168;-68
2023/03/23 04:45:14;;;;;;;0.88;0.70;;;14.10;99.90;;;;;;4975357;28;20227;-67
2023/03/23 04:47:41;;;;;;;1.10;0.95;;;14.10;99.90;;;;;;4975597;28;20172;-68
2023/03/23 04:50:12;;;;;;;1.63;0.90;;;14.10;99.90;;;;;;4975330;28;20227;-67
2023/03/23 04:52:44;;;;;;;1.00;0.80;;;14.10;99.90;;;;;;4991520;28;20262;-67
2023/03/23 04:55:11;;;;;;;1.20;1.00;;;14.10;99.90;;;;;;4974317;28;20167;-68
2023/03/23 04:57:37;;;;;;;1.92;1.27;;;14.00;99.90;;;;;;4990456;28;20184;-66
2023/03/23 05:00:08;;;;;;;1.50;1.15;;;14.00;99.90;;;;;;4974193;28;20183;-66
2023/03/23 05:02:35;;;;;;;1.58;1.10;;;14.00;99.90;;;;;;4975678;28;20262;-65
2023/03/23 05:05:01;;;;;;;1.27;0.98;;;14.00;99.90;;;;;;4981260;28;20172;-67
2023/03/23 05:07:27;;;;;;;1.42;1.10;;;14.00;99.90;;;;;;4976220;28;20414;-68
2023/03/23 05:09:52;;;;;;;1.67;0.98;;;14.00;99.90;;;;;;4982834;28;20206;-65
2023/03/23 05:12:23;;;;;;;1.00;0.85;;;14.00;99.90;;;;;;4974431;28;20457;-68
2023/03/23 05:14:48;;;;;;;1.20;1.10;;;14.00;99.90;;;;;;4991510;28;20175;-67
2023/03/23 05:17:16;;;;;;;1.80;1.10;;;14.00;99.90;;;;;;4983653;28;20202;-68
2023/03/23 05:19:44;;;;;;;1.80;1.00;;;14.00;99.90;;;;;;4992589;28;20257;-67
2023/03/23 05:22:12;;;;;;;1.13;0.95;;;14.00;99.90;;;;;;4991008;28;20352;-67
2023/03/23 05:24:42;;;;;;;1.30;1.00;;;14.00;99.90;;;;;;4974806;28;20223;-67
2023/03/23 05:27:10;;;;;;;1.33;1.10;;;14.00;99.90;;;;;;4974650;28;20176;-68
2023/03/23 05:29:40;;;;;;;1.35;1.00;;;14.00;99.90;;;;;;4981577;28;20175;-68
2023/03/23 05:32:07;;;;;;;1.33;1.00;;;13.90;99.90;;;;;;4975360;28;20290;-68
2023/03/23 05:34:34;;;;;;;1.63;1.20;;;14.00;99.90;;;;;;4973437;28;20184;-65
2023/03/23 05:37:03;;;;;;;1.95;1.38;;;13.90;99.90;;;;;;4990065;28;20192;-69
2023/03/23 05:39:31;;;;;;;1.75;1.17;;;14.00;99.90;;;;;;4962215;28;20308;-69
2023/03/23 05:41:57;;;;;;;1.80;1.02;;;13.90;99.90;;;;;;4977210;28;20184;-67
2023/03/23 05:44:23;;;;;;;1.98;1.40;;;14.00;99.90;;;;;;4990606;28;20204;-68
2023/03/23 05:46:51;;;;;;;2.00;1.00;;;14.00;99.90;;;;;;4990670;28;20298;-64
2023/03/23 05:49:22;;;;;;;1.20;1.00;;;14.00;99.90;;;;;;4974917;28;20186;-67
2023/03/23 05:51:50;;;;;;;1.15;0.90;;;14.00;99.90;;;;;;4974886;28;20215;-68
2023/03/23 05:54:18;;;;;;;1.23;0.85;;;14.00;99.90;;;;;;4974701;28;20184;-68
2023/03/23 05:56:44;;;;;;;1.40;0.80;;;14.00;99.90;;;;;;4993848;28;20290;-68
2023/03/23 05:59:10;;;;;;;1.00;0.90;;;14.00;99.90;;;;;;4971547;28;20210;-68
2023/03/23 06:01:39;;;;;;;0.80;0.70;;;14.10;99.90;;;;;;4972813;28;20214;-67
2023/03/23 06:04:04;;;;;;;3.83;1.10;;;14.10;99.90;;;;;;4991045;28;20212;-68
2023/03/23 06:06:32;;;;;;;1.50;1.00;;;14.00;99.90;;;;;;4994511;28;20218;-68
2023/03/23 06:08:58;;;;;;;1.77;1.10;;;14.10;99.90;;;;;;4994778;28;20215;-68
2023/03/23 06:11:26;;;;;;;1.40;0.98;;;14.10;99.90;;;;;;4994203;28;20200;-67
2023/03/23 06:13:53;;;;;;;1.77;0.90;;;14.10;99.90;;;;;;4993677;28;20180;-67
2023/03/23 06:16:19;;;;;;;1.20;0.85;;;14.20;99.90;;;;;;4994774;28;20180;-68
2023/03/23 06:18:45;;;;;;;1.73;1.02;;;14.20;99.90;;;;;;4994710;28;20176;-68
2023/03/23 06:21:11;;;;;;;1.55;1.10;;;14.30;99.90;;;;;;4982081;28;20267;-65
2023/03/23 06:23:42;;;;;;;3.03;1.33;;;14.30;99.90;;;;;;4970645;28;20175;-67
2023/03/23 06:26:09;;;;;;;1.98;1.05;;;14.30;99.90;;;;;;4977399;28;20192;-67
2023/03/23 06:28:35;;;;;;;1.35;0.95;;;14.40;99.90;;;;;;4977792;28;20200;-64
2023/03/23 06:31:06;;;;;;;2.05;0.88;;;14.40;99.90;;;;;;4974660;28;20280;-64
2023/03/23 06:33:39;;;;;;;2.17;0.90;;;14.50;99.90;;;;;;4991002;28;20484;-64
2023/03/23 06:36:07;;;;;;;1.60;0.93;;;14.50;99.90;;;;;;4981046;28;20152;-68
2023/03/23 06:38:33;;;;;;;2.28;1.00;;;14.50;99.90;;;;;;4997592;28;20184;-67
2023/03/23 06:41:01;;;;;;;1.52;1.00;;;14.60;99.90;;;;;;4983505;28;20176;-68
2023/03/23 06:43:27;;;;;;;1.67;0.80;;;14.70;99.90;;;;;;5013281;28;20198;-67
2023/03/23 06:46:01;;;;;;;1.95;0.70;;;14.70;99.90;;;;;;5013369;28;20175;-70
2023/03/23 06:48:27;;;;;;;1.38;0.82;;;14.80;99.90;;;;;;5012912;28;20357;-66
2023/03/23 06:50:53;;;;;;;1.60;0.90;;;14.70;99.90;;;;;;5013179;28;20310;-65
2023/03/23 06:53:20;;;;;;;1.30;0.93;;;14.80;99.90;;;;;;4997218;28;20167;-67
2023/03/23 06:55:46;;;;;;;1.30;0.90;;;14.80;99.90;;;;;;4996042;28;20183;-68
2023/03/23 06:58:12;;;;;;;2.17;0.98;;;14.80;99.90;;;;;;4977252;28;20174;-68
2023/03/23 07:00:38;;;;;;;1.90;1.00;;;14.80;99.90;;;;;;4977825;28;20250;-67
2023/03/23 07:03:07;;;;;;;1.58;1.00;;;14.80;99.90;;;;;;4977730;28;20235;-67
2023/03/23 07:05:34;;;;;;;1.40;0.80;;;14.80;99.90;;;;;;4977781;28;20176;-64
2023/03/23 07:08:01;;;;;;;2.47;1.20;;;14.90;99.90;;;;;;4977146;28;20200;-68
2023/03/23 07:10:27;;;;;;;2.70;1.00;;;14.90;99.90;;;;;;4977942;28;20194;-66
2023/03/23 07:12:56;;;;;;;1.30;0.80;;;14.90;99.90;;;;;;4975602;28;20235;-68
2023/03/23 07:15:24;;;;;;;1.45;0.90;;;14.90;99.90;;;;;;4958612;28;20169;-68
2023/03/23 07:17:54;;;;;;;2.03;1.00;;;14.90;99.90;;;;;;4972333;28;20293;-69
2023/03/23 07:20:19;;;;;;;1.75;1.13;;;14.90;99.90;;;;;;4977467;28;20207;-67
2023/03/23 07:22:45;;;;;;;3.65;1.88;;;15.00;99.90;;;;;;4993486;28;20172;-68
2023/03/23 07:25:11;;;;;;;3.30;1.40;;;15.00;99.90;;;;;;4993489;28;20180;-67
2023/03/23 07:27:39;;;;;;;2.85;1.30;;;15.00;99.90;;;;;;4993408;28;20180;-67
2023/03/23 07:30:05;;;;;;;1.98;1.30;;;15.00;99.90;;;;;;4977280;28;20176;-68
2023/03/23 07:32:33;;;;;;;1.75;1.10;;;15.10;99.90;;;;;;4977158;28;20207;-68
2023/03/23 07:34:58;;;;;;;2.05;1.10;;;15.10;99.90;;;;;;4977298;28;20180;-68
2023/03/23 07:37:28;;;;;;;2.33;1.00;;;15.20;99.90;;;;;;4992942;28;20506;-65
2023/03/23 07:39:56;;;;;;;2.03;0.80;;;15.20;99.90;;;;;;4977493;28;20180;-66
2023/03/23 07:42:24;;;;;;;3.63;1.20;;;15.20;99.90;;;;;;4977271;28;20246;-68
2023/03/23 07:44:49;;;;;;;4.25;1.10;;;15.30;99.90;;;;;;4993594;28;20186;-67
2023/03/23 07:47:17;;;;;;;2.00;0.90;;;15.30;99.90;;;;;;4993349;28;20176;-67
2023/03/23 07:49:43;;;;;;;1.83;1.10;;;15.30;99.90;;;;;;4993451;28;20267;-65
2023/03/23 07:52:10;;;;;;;1.08;0.93;;;15.40;99.90;;;;;;4993383;28;20302;-67
2023/03/23 07:54:36;;;;;;;1.75;1.27;;;15.50;99.90;;;;;;4993085;28;20207;-68
2023/03/23 07:57:02;;;;;;;1.45;0.88;;;15.50;99.90;;;;;;4979752;28;20180;-67
2023/03/23 07:59:27;;;;;;;1.83;0.85;;;15.40;99.90;;;;;;4993035;28;20246;-68
2023/03/23 08:01:53;;;;;;;1.20;0.80;;;15.50;99.90;;;;;;4992932;28;20200;-69
2023/03/23 08:04:21;;;;;;;1.63;0.90;;;15.50;99.90;;;;;;4976927;28;20184;-68
2023/03/23 08:06:47;;;;;;;3.58;1.00;;;15.60;99.90;;;;;;4976927;28;20176;-65
2023/03/23 08:09:14;;;;;;;2.97;0.98;;;15.60;99.90;;;;;;4977005;28;20179;-68
2023/03/23 08:11:40;;;;;;;2.00;1.20;;;15.60;99.90;;;;;;4973662;28;20206;-68
2023/03/23 08:14:06;;;;;;;2.28;1.10;;;15.70;99.90;;;;;;4957318;29;20196;-68
2023/03/23 08:16:33;;;;;;;2.20;0.93;;;15.70;99.90;;;;;;4974234;28;20243;-68
2023/03/23 08:18:58;;;;;;;3.00;0.90;;;15.70;99.90;;;;;;4973413;28;20205;-67
2023/03/23 08:21:26;;;;;;;3.30;1.00;;;15.70;99.90;;;;;;4960874;28;20200;-66
2023/03/23 08:23:54;;;;;;;2.13;1.00;;;15.70;99.90;;;;;;4976502;28;20438;-68
2023/03/23 08:26:22;;;;;;;2.75;1.30;;;15.80;99.90;;;;;;4976549;28;20180;-67
2023/03/23 08:28:48;;;;;;;2.67;1.10;;;15.80;99.90;;;;;;4976097;28;20190;-67
2023/03/23 08:31:14;;;;;;;4.78;0.90;;;15.80;99.90;;;;;;4976459;28;20203;-68
2023/03/23 08:33:43;;;;;;;2.85;0.88;;;15.80;99.90;;;;;;4976214;28;20177;-69
2023/03/23 08:36:13;;;;;;;1.63;0.70;;;15.80;99.90;;;;;;4992195;28;20215;-68
2023/03/23 08:38:39;;;;;;;2.55;1.10;;;15.90;99.90;;;;;;4976139;28;20176;-66
2023/03/23 08:41:09;;;;;;;2.78;0.93;;;15.90;99.90;;;;;;4984911;28;20187;-66
2023/03/23 08:43:35;;;;;;;1.95;0.88;;;15.90;99.90;;;;;;4960189;28;20210;-69
2023/03/23 08:46:06;;;;;;;2.53;1.02;;;15.90;99.90;;;;;;4964448;28;20198;-67
2023/03/23 08:48:33;;;;;;;1.88;1.10;;;15.90;99.90;;;;;;4976007;28;20164;-67
2023/03/23 08:51:01;;;;;;;2.35;0.98;;;15.90;99.90;;;;;;4975633;28;20208;-66
2023/03/23 08:53:30;;;;;;;2.95;1.00;;;15.90;99.90;;;;;;4975939;28;20249;-67
2023/03/23 08:55:56;;;;;;;1.40;1.00;;;16.00;99.90;;;;;;4975765;28;20256;-67
2023/03/23 08:58:26;;;;;;;1.83;1.10;;;16.10;99.90;;;;;;4975978;28;20198;-68
2023/03/23 09:00:52;;;;;;;2.42;1.00;;;16.10;99.90;;;;;;4975837;28;20276;-67
2023/03/23 09:03:20;;;;;;;5.50;1.17;;;16.10;99.90;;;;;;4975645;28;20184;-67
2023/03/23 09:05:45;;;;;;;1.98;1.00;;;16.10;99.90;;;;;;4975788;28;20168;-67
2023/03/23 09:08:14;;;;;;;5.85;1.13;;;16.20;99.90;;;;;;4975599;28;20211;-68
2023/03/23 09:10:39;;;;;;;4.25;1.20;;;16.20;99.90;;;;;;4975663;28;20180;-68
2023/03/23 09:13:06;;;;;;;1.95;1.00;;;16.20;99.90;;;;;;4958525;28;20224;-68
2023/03/23 09:15:32;;;;;;;1.70;0.90;;;16.20;99.90;;;;;;4956415;28;20176;-67
2023/03/23 09:18:01;;;;;;;2.25;1.00;;;16.20;99.90;;;;;;4956091;29;20180;-67
2023/03/23 09:20:29;;;;;;;3.85;1.30;;;16.20;99.90;;;;;;4970776;28;20176;-66
2023/03/23 09:22:57;;;;;;;2.03;0.88;;;16.30;99.90;;;;;;4975540;28;20214;-67
2023/03/23 09:25:28;;;;;;;1.40;0.68;;;16.30;99.90;;;;;;4975565;28;20200;-66
2023/03/23 09:27:57;;;;;;;3.00;1.20;;;16.30;99.90;;;;;;4975453;28;20179;-66
2023/03/23 09:30:32;;;;;;;2.17;0.93;;;16.30;99.90;;;;;;4975534;28;20199;-67
2023/03/23 09:33:02;;;;;;;2.17;1.20;;;16.40;99.90;;;;;;4974900;28;20219;-67
2023/03/23 09:35:35;;;;;;;2.25;0.95;;;16.40;99.90;;;;;;4991627;28;20183;-68
2023/03/23 09:38:04;;;;;;;3.03;1.10;;;16.40;99.90;;;;;;4991727;28;20172;-67
2023/03/23 09:40:48;;;;;;;5.13;1.05;;;16.40;99.90;;;;;;5002965;28;20227;-65
2023/03/23 09:43:14;;;;;;;1.55;0.90;;;16.40;99.90;;;;;;4998306;28;20167;-67
2023/03/23 09:45:58;;;;;;;2.83;1.10;;;16.40;99.90;;;;;;4998072;28;20199;-67
2023/03/23 09:48:51;;;;;;;3.40;1.05;;;16.50;99.90;;;;;;4998165;28;20243;-67
2023/03/23 09:51:40;;;;;;;1.95;1.10;;;16.50;99.90;;;;;;4997870;28;20294;-67
2023/03/23 09:54:27;;;;;;;1.65;0.70;;;16.60;99.90;;;;;;4981427;28;20164;-65
2023/03/23 09:56:57;;;;;;;1.90;0.75;;;16.60;99.90;;;;;;4981768;28;20255;-67
2023/03/23 09:59:26;;;;;;;1.23;0.70;;;16.70;99.90;;;;;;4998030;28;20227;-69
2023/03/23 10:02:04;;;;;;;1.83;0.90;;;16.70;99.90;;;;;;4997608;28;20183;-65
2023/03/23 10:04:29;;;;;;;1.92;0.85;;;16.70;99.90;;;;;;4981684;28;20187;-66
2023/03/23 10:07:26;;;;;;;1.83;0.90;;;16.70;99.90;;;;;;4998033;28;20192;-67
2023/03/23 10:09:57;;;;;;;1.48;0.70;;;16.60;99.90;;;;;;4984016;28;20241;-66
2023/03/23 10:12:32;;;;;;;0.90;0.52;;;16.60;99.90;;;;;;5017465;28;20206;-65
2023/03/23 10:15:25;;;;;;;2.05;0.90;;;16.60;99.90;;;;;;5017568;28;20174;-68
2023/03/23 10:17:54;;;;;;;1.40;0.80;;;16.60;99.90;;;;;;5017364;28;20164;-67
2023/03/23 10:20:36;;;;;;;1.17;0.60;;;16.60;99.90;;;;;;5017613;28;20199;-67
2023/03/23 10:23:53;;;;;;;1.42;0.80;;;16.50;99.90;;;;;;5002471;28;20172;-67
2023/03/23 10:26:32;;;;;;;2.00;0.70;;;16.60;99.90;;;;;;4997359;28;20195;-66
2023/03/23 10:29:27;;;;;;;1.63;0.70;;;16.60;99.90;;;;;;4980912;28;20188;-67
2023/03/23 10:31:59;;;;;;;0.50;0.47;;;16.60;99.90;;;;;;4958389;28;20211;-66
2023/03/23 10:34:34;;;;;;;3.45;0.77;;;16.60;99.90;;;;;;4997192;28;20262;-66
2023/03/23 10:37:06;;;;;;;0.70;0.60;;;16.60;99.90;;;;;;4997116;28;20179;-66
2023/03/23 10:39:43;;;;;;;1.35;0.73;;;16.70;99.90;;;;;;4996344;28;20199;-65
2023/03/23 10:42:09;;;;;;;0.70;0.60;;;16.60;99.90;;;;;;4980769;28;20249;-64
2023/03/23 10:44:35;;;;;;;1.50;0.60;;;16.60;99.90;;;;;;4980602;28;20183;-67
2023/03/23 10:47:05;;;;;;;2.75;0.70;;;16.60;99.90;;;;;;4980822;28;20183;-66
2023/03/23 10:50:12;;;;;;;0.75;0.50;;;16.60;99.90;;;;;;4980810;28;20179;-66
2023/03/23 10:52:40;;;;;;;1.15;0.55;;;16.70;99.90;;;;;;4937916;29;20339;-67
2023/03/23 10:55:09;;;;;;;0.93;0.60;;;16.70;99.90;;;;;;4952182;29;20184;-68
2023/03/23 10:57:37;;;;;;;1.52;0.60;;;16.70;99.90;;;;;;4979498;28;20176;-67
2023/03/23 11:00:06;;;;;;;1.63;0.70;;;16.70;99.90;;;;;;4977668;28;20183;-67
2023/03/23 11:02:42;;;;;;;1.25;0.50;;;16.70;99.90;;;;;;4993195;28;20203;-68
2023/03/23 11:05:27;;;;;;;1.13;0.52;;;16.70;99.90;;;;;;4977573;28;20191;-68
2023/03/23 11:07:55;;;;;;;1.45;0.68;;;16.80;99.90;;;;;;4993666;28;20195;-67
2023/03/23 11:10:28;;;;;;;2.65;0.73;;;16.80;99.90;;;;;;4992901;28;20180;-67
2023/03/23 11:12:58;;;;;;;0.90;0.60;;;16.70;99.90;;;;;;4977439;28;20203;-66
2023/03/23 11:15:37;;;;;;;1.52;0.60;;;16.80;99.90;;;;;;4977485;28;20204;-67
2023/03/23 11:18:10;;;;;;;1.20;0.55;;;16.80;99.90;;;;;;4977180;28;20168;-67
2023/03/23 11:20:41;;;;;;;2.45;0.73;;;16.80;99.90;;;;;;4977398;28;20187;-68
2023/03/23 11:23:27;;;;;;;1.00;0.50;;;16.90;99.90;;;;;;4977267;28;20282;-68
2023/03/23 11:25:58;;;;;;;1.00;0.80;;;17.00;99.90;;;;;;4979366;28;20200;-65
2023/03/23 11:28:31;;;;;;;0.68;0.60;;;17.00;99.90;;;;;;5012817;28;20175;-67
2023/03/23 11:31:05;;;;;;;1.17;0.55;;;17.10;99.90;;;;;;5012469;28;20171;-65
2023/03/23 11:33:51;;;;;;;0.90;0.57;;;17.10;99.90;;;;;;5012729;28;20183;-68
2023/03/23 11:36:17;;;;;;;2.15;0.60;;;17.10;99.90;;;;;;5012731;28;20191;-66
2023/03/23 11:38:46;;;;;;;1.55;0.80;;;17.20;99.90;;;;;;5012516;28;20415;-68
2023/03/23 11:41:18;;;;;;;2.22;0.88;;;17.20;99.90;;;;;;5012203;28;20186;-68
2023/03/23 11:43:46;;;;;;;1.45;0.60;;;17.30;99.90;;;;;;4982586;28;20179;-67
2023/03/23 11:46:14;;;;;;;2.38;1.20;;;17.40;99.90;;;;;;4976707;28;20184;-64
2023/03/23 11:48:54;;;;;;;1.20;0.90;;;17.40;99.90;;;;;;4992928;28;20180;-68
2023/03/23 11:51:33;;;;;;;3.10;0.90;;;17.50;99.90;;;;;;4976243;28;20466;-68
2023/03/23 11:54:27;;;;;;;1.75;0.93;;;17.60;99.90;;;;;;4976546;28;20187;-69
2023/03/23 11:56:54;;;;;;;1.35;0.90;;;17.80;99.90;;;;;;4960657;28;20207;-66
2023/03/23 11:59:38;;;;;;;1.35;0.90;;;17.80;99.90;;;;;;4992321;28;20204;-68
2023/03/23 12:02:28;;;;;;;2.35;1.13;;;17.80;99.90;;;;;;5002945;28;20518;-66
2023/03/23 12:05:28;;;;;;;2.67;1.10;;;17.70;99.90;;;;;;5012252;28;20176;-67
2023/03/23 12:08:03;;;;;;;2.65;0.90;;;17.70;99.90;;;;;;5012053;28;20438;-68
2023/03/23 12:10:56;;;;;;;1.00;0.80;;;17.70;99.90;;;;;;4998410;28;20211;-68
2023/03/23 12:13:52;;;;;;;1.58;0.93;;;17.70;99.90;;;;;;4992513;28;20186;-67
2023/03/23 12:16:39;;;;;;;1.30;0.90;;;17.70;99.90;;;;;;4992297;28;20179;-68
2023/03/23 12:19:18;;;;;;;1.48;0.80;;;17.80;99.90;;;;;;4973187;28;20204;-68
2023/03/23 12:22:22;;;;;;;1.88;1.10;;;17.80;99.90;;;;;;4973173;28;20183;-68
2023/03/23 12:25:03;;;;;;;2.03;1.27;;;17.80;99.90;;;;;;4970874;28;20624;-69
2023/03/23 12:27:32;;;;;;;2.67;1.13;;;17.80;99.90;;;;;;4972794;28;20209;-64
2023/03/23 12:30:21;;;;;;;2.03;0.80;;;17.80;99.90;;;;;;4976405;28;20275;-68
2023/03/23 12:32:55;;;;;;;2.53;1.10;;;17.80;99.90;;;;;;4975893;28;20216;-68
2023/03/23 12:35:24;;;;;;;2.28;0.90;;;17.80;99.90;;;;;;4992145;28;20186;-69
2023/03/23 12:38:20;;;;;;;3.08;1.02;;;17.80;99.90;;;;;;4991923;28;20200;-67
2023/03/23 12:41:01;;;;;;;3.67;1.08;;;17.80;99.90;;;;;;4989992;28;20172;-66
2023/03/23 12:43:46;;;;;;;2.65;0.80;;;17.80;99.90;;;;;;4991848;28;20180;-67
2023/03/23 12:46:24;;;;;;;2.15;1.20;;;17.80;99.90;;;;;;4968510;28;20183;-68
2023/03/23 12:49:16;;;;;;;2.22;1.15;;;17.70;99.90;;;;;;4991836;28;20168;-67
2023/03/23 12:52:39;;;;;;;2.38;1.20;;;17.70;99.90;;;;;;4961248;28;20227;-68
2023/03/23 12:55:25;;;;;;;3.20;0.90;;;17.70;99.90;;;;;;4949328;28;20184;-70
2023/03/23 12:57:59;;;;;;;4.38;1.10;;;17.70;99.90;;;;;;4975928;28;20250;-66
2023/03/23 13:00:27;;;;;;;2.20;1.10;;;17.70;99.90;;;;;;4992445;28;20229;-67
2023/03/23 13:03:07;;;;;;;2.47;1.10;;;17.70;99.90;;;;;;4992033;28;20490;-67
2023/03/23 13:05:41;;;;;;;2.75;0.90;;;17.70;99.90;;;;;;4962338;28;20200;-68
2023/03/23 13:08:18;;;;;;;3.05;1.00;;;17.60;99.90;;;;;;4972656;28;20212;-70
2023/03/23 13:10:55;;;;;;;2.25;1.08;;;17.60;99.90;;;;;;4961115;28;20176;-67